sensor_id;sensor_type;location;lat;lon;timestamp;pressure;altitude;pressure_sealevel;temperature
15680;BMP180;15488;48.114;11.532;2023-05-08T00:00:22;95575.00;;;23.20
15680;BMP180;15488;48.114;11.532;2023-05-08T00:02:49;95578.00;;;23.20
15680;BMP180;15488;48.114;11.532;2023-05-08T00:05:17;95583.00;;;23.20
15680;BMP180;15488;48.114;11.532;2023-05-08T00:07:44;95580.00;;;23.20
15680;BMP180;15488;48.114;11.532;2023-05-08T00:10:12;95574.00;;;23.20
15680;BMP180;15488;48.114;11.532;2023-05-08T00:12:40;95579.00;;;23.10
15680;BMP180;15488;48.114;11.532;2023-05-08T00:15:09;95586.00;;;23.10
15680;BMP180;15488;48.114;11.532;2023-05-08T00:17:36;95583.00;;;23.10
15680;BMP180;15488;48.114;11.532;2023-05-08T00:20:04;95587.00;;;23.10
15680;BMP180;15488;48.114;11.532;2023-05-08T00:22:33;95586.00;;;23.10
15680;BMP180;15488;48.114;11.532;2023-05-08T00:25:01;95587.00;;;23.10
15680;BMP180;15488;48.114;11.532;2023-05-08T00:27:29;95590.00;;;23.10
15680;BMP180;15488;48.114;11.532;2023-05-08T00:29:58;95597.00;;;23.10
15680;BMP180;15488;48.114;11.532;2023-05-08T00:32:26;95595.00;;;23.00
15680;BMP180;15488;48.114;11.532;2023-05-08T00:34:54;95594.00;;;23.00
15680;BMP180;15488;48.114;11.532;2023-05-08T00:37:21;95602.00;;;23.00
15680;BMP180;15488;48.114;11.532;2023-05-08T00:39:48;95592.00;;;23.00
15680;BMP180;15488;48.114;11.532;2023-05-08T00:42:16;95595.00;;;23.00
15680;BMP180;15488;48.114;11.532;2023-05-08T00:44:43;95599.00;;;23.00
15680;BMP180;15488;48.114;11.532;2023-05-08T00:47:12;95591.00;;;23.00
15680;BMP180;15488;48.114;11.532;2023-05-08T00:49:40;95591.00;;;23.00
15680;BMP180;15488;48.114;11.532;2023-05-08T00:52:08;95592.00;;;22.90
15680;BMP180;15488;48.114;11.532;2023-05-08T00:54:37;95593.00;;;22.90
15680;BMP180;15488;48.114;11.532;2023-05-08T00:57:06;95591.00;;;22.90
15680;BMP180;15488;48.114;11.532;2023-05-08T00:59:34;95588.00;;;22.90
15680;BMP180;15488;48.114;11.532;2023-05-08T01:02:02;95593.00;;;22.90
15680;BMP180;15488;48.114;11.532;2023-05-08T01:04:31;95590.00;;;22.80
15680;BMP180;15488;48.114;11.532;2023-05-08T01:07:01;95597.00;;;22.80
15680;BMP180;15488;48.114;11.532;2023-05-08T01:09:28;95600.00;;;22.80
15680;BMP180;15488;48.114;11.532;2023-05-08T01:12:06;95603.00;;;22.80
15680;BMP180;15488;48.114;11.532;2023-05-08T01:14:44;95602.00;;;22.80
15680;BMP180;15488;48.114;11.532;2023-05-08T01:20:14;95605.00;;;22.80
15680;BMP180;15488;48.114;11.532;2023-05-08T01:32:05;95606.00;;;22.70
15680;BMP180;15488;48.114;11.532;2023-05-08T01:34:40;95611.00;;;22.70
15680;BMP180;15488;48.114;11.532;2023-05-08T01:37:14;95611.00;;;22.70
15680;BMP180;15488;48.114;11.532;2023-05-08T01:39:44;95619.00;;;22.70
15680;BMP180;15488;48.114;11.532;2023-05-08T01:42:21;95613.00;;;22.60
15680;BMP180;15488;48.114;11.532;2023-05-08T01:44:55;95620.00;;;22.60
15680;BMP180;15488;48.114;11.532;2023-05-08T01:47:27;95624.00;;;22.60
15680;BMP180;15488;48.114;11.532;2023-05-08T01:50:00;95619.00;;;22.60
15680;BMP180;15488;48.114;11.532;2023-05-08T01:52:33;95624.00;;;22.60
15680;BMP180;15488;48.114;11.532;2023-05-08T01:55:03;95628.00;;;22.40
15680;BMP180;15488;48.114;11.532;2023-05-08T01:57:34;95629.00;;;22.50
15680;BMP180;15488;48.114;11.532;2023-05-08T02:00:04;95635.00;;;22.50
15680;BMP180;15488;48.114;11.532;2023-05-08T02:02:35;95627.00;;;22.50
15680;BMP180;15488;48.114;11.532;2023-05-08T02:05:06;95630.00;;;22.50
15680;BMP180;15488;48.114;11.532;2023-05-08T02:07:34;95633.00;;;22.50
15680;BMP180;15488;48.114;11.532;2023-05-08T02:10:04;95630.00;;;22.50
15680;BMP180;15488;48.114;11.532;2023-05-08T02:12:32;95630.00;;;22.40
15680;BMP180;15488;48.114;11.532;2023-05-08T02:15:01;95635.00;;;22.40
15680;BMP180;15488;48.114;11.532;2023-05-08T02:17:30;95630.00;;;22.40
15680;BMP180;15488;48.114;11.532;2023-05-08T02:20:00;95633.00;;;22.40
15680;BMP180;15488;48.114;11.532;2023-05-08T02:22:30;95630.00;;;22.40
15680;BMP180;15488;48.114;11.532;2023-05-08T02:24:58;95637.00;;;22.30
15680;BMP180;15488;48.114;11.532;2023-05-08T02:27:27;95637.00;;;22.30
15680;BMP180;15488;48.114;11.532;2023-05-08T02:29:56;95626.00;;;22.30
15680;BMP180;15488;48.114;11.532;2023-05-08T02:32:26;95629.00;;;22.30
15680;BMP180;15488;48.114;11.532;2023-05-08T02:34:56;95634.00;;;22.30
15680;BMP180;15488;48.114;11.532;2023-05-08T02:37:26;95632.00;;;22.30
15680;BMP180;15488;48.114;11.532;2023-05-08T02:39:55;95626.00;;;22.30
15680;BMP180;15488;48.114;11.532;2023-05-08T02:42:24;95639.00;;;22.30
15680;BMP180;15488;48.114;11.532;2023-05-08T02:44:51;95639.00;;;22.30
15680;BMP180;15488;48.114;11.532;2023-05-08T02:47:22;95640.00;;;22.30
15680;BMP180;15488;48.114;11.532;2023-05-08T02:49:53;95638.00;;;22.30
15680;BMP180;15488;48.114;11.532;2023-05-08T02:52:27;95637.00;;;22.30
15680;BMP180;15488;48.114;11.532;2023-05-08T02:54:59;95637.00;;;22.30
15680;BMP180;15488;48.114;11.532;2023-05-08T02:57:34;95637.00;;;22.30
15680;BMP180;15488;48.114;11.532;2023-05-08T03:00:09;95641.00;;;22.30
15680;BMP180;15488;48.114;11.532;2023-05-08T03:02:41;95638.00;;;22.20
15680;BMP180;15488;48.114;11.532;2023-05-08T03:05:14;95635.00;;;22.20
15680;BMP180;15488;48.114;11.532;2023-05-08T03:07:48;95640.00;;;22.20
15680;BMP180;15488;48.114;11.532;2023-05-08T03:10:18;95642.00;;;22.20
15680;BMP180;15488;48.114;11.532;2023-05-08T03:12:50;95646.00;;;22.20
15680;BMP180;15488;48.114;11.532;2023-05-08T03:15:22;95640.00;;;22.20
15680;BMP180;15488;48.114;11.532;2023-05-08T03:17:53;95639.00;;;22.20
15680;BMP180;15488;48.114;11.532;2023-05-08T03:20:22;95643.00;;;22.20
15680;BMP180;15488;48.114;11.532;2023-05-08T03:22:53;95639.00;;;22.20
15680;BMP180;15488;48.114;11.532;2023-05-08T03:25:22;95643.00;;;22.20
15680;BMP180;15488;48.114;11.532;2023-05-08T03:27:51;95643.00;;;22.10
15680;BMP180;15488;48.114;11.532;2023-05-08T03:30:20;95643.00;;;22.10
15680;BMP180;15488;48.114;11.532;2023-05-08T03:32:48;95640.00;;;21.90
15680;BMP180;15488;48.114;11.532;2023-05-08T03:35:17;95646.00;;;22.10
15680;BMP180;15488;48.114;11.532;2023-05-08T03:37:44;95649.00;;;22.10
15680;BMP180;15488;48.114;11.532;2023-05-08T03:40:13;95651.00;;;22.10
15680;BMP180;15488;48.114;11.532;2023-05-08T03:42:41;95648.00;;;22.10
15680;BMP180;15488;48.114;11.532;2023-05-08T03:45:10;95647.00;;;22.10
15680;BMP180;15488;48.114;11.532;2023-05-08T03:47:40;95651.00;;;22.10
15680;BMP180;15488;48.114;11.532;2023-05-08T03:50:08;95647.00;;;22.10
15680;BMP180;15488;48.114;11.532;2023-05-08T03:52:36;95652.00;;;22.10
15680;BMP180;15488;48.114;11.532;2023-05-08T03:55:05;95656.00;;;22.00
15680;BMP180;15488;48.114;11.532;2023-05-08T03:57:38;95658.00;;;22.00
15680;BMP180;15488;48.114;11.532;2023-05-08T04:00:13;95659.00;;;22.00
15680;BMP180;15488;48.114;11.532;2023-05-08T04:02:45;95657.00;;;22.00
15680;BMP180;15488;48.114;11.532;2023-05-08T04:05:16;95660.00;;;22.00
15680;BMP180;15488;48.114;11.532;2023-05-08T04:07:51;95666.00;;;22.00
15680;BMP180;15488;48.114;11.532;2023-05-08T04:10:23;95670.00;;;21.90
15680;BMP180;15488;48.114;11.532;2023-05-08T04:13:02;95665.00;;;21.90
15680;BMP180;15488;48.114;11.532;2023-05-08T04:15:33;95673.00;;;21.90
15680;BMP180;15488;48.114;11.532;2023-05-08T04:18:05;95675.00;;;21.90
15680;BMP180;15488;48.114;11.532;2023-05-08T04:20:34;95670.00;;;21.90
15680;BMP180;15488;48.114;11.532;2023-05-08T04:23:02;95674.00;;;21.80
15680;BMP180;15488;48.114;11.532;2023-05-08T04:25:34;95679.00;;;21.80
15680;BMP180;15488;48.114;11.532;2023-05-08T04:28:04;95683.00;;;21.80
15680;BMP180;15488;48.114;11.532;2023-05-08T04:30:32;95682.00;;;21.80
15680;BMP180;15488;48.114;11.532;2023-05-08T04:33:02;95681.00;;;21.80
15680;BMP180;15488;48.114;11.532;2023-05-08T04:35:31;95683.00;;;21.80
15680;BMP180;15488;48.114;11.532;2023-05-08T04:37:59;95684.00;;;21.70
15680;BMP180;15488;48.114;11.532;2023-05-08T04:40:28;95694.00;;;21.70
15680;BMP180;15488;48.114;11.532;2023-05-08T04:42:55;95692.00;;;21.70
15680;BMP180;15488;48.114;11.532;2023-05-08T04:45:24;95695.00;;;21.70
15680;BMP180;15488;48.114;11.532;2023-05-08T04:47:52;95695.00;;;21.70
15680;BMP180;15488;48.114;11.532;2023-05-08T04:50:19;95693.00;;;21.70
15680;BMP180;15488;48.114;11.532;2023-05-08T04:52:47;95702.00;;;21.70
15680;BMP180;15488;48.114;11.532;2023-05-08T04:55:14;95698.00;;;21.70
15680;BMP180;15488;48.114;11.532;2023-05-08T04:57:42;95702.00;;;21.70
15680;BMP180;15488;48.114;11.532;2023-05-08T05:00:10;95701.00;;;21.60
15680;BMP180;15488;48.114;11.532;2023-05-08T05:02:39;95699.00;;;21.60
15680;BMP180;15488;48.114;11.532;2023-05-08T05:05:07;95705.00;;;21.60
15680;BMP180;15488;48.114;11.532;2023-05-08T05:07:35;95704.00;;;21.60
15680;BMP180;15488;48.114;11.532;2023-05-08T05:10:02;95715.00;;;21.60
15680;BMP180;15488;48.114;11.532;2023-05-08T05:12:30;95719.00;;;21.60
15680;BMP180;15488;48.114;11.532;2023-05-08T05:14:57;95718.00;;;21.60
15680;BMP180;15488;48.114;11.532;2023-05-08T05:17:25;95718.00;;;21.60
15680;BMP180;15488;48.114;11.532;2023-05-08T05:19:54;95721.00;;;21.50
15680;BMP180;15488;48.114;11.532;2023-05-08T05:22:22;95729.00;;;21.60
15680;BMP180;15488;48.114;11.532;2023-05-08T05:24:49;95727.00;;;21.50
15680;BMP180;15488;48.114;11.532;2023-05-08T05:27:17;95726.00;;;21.50
15680;BMP180;15488;48.114;11.532;2023-05-08T05:29:44;95721.00;;;21.50
15680;BMP180;15488;48.114;11.532;2023-05-08T05:32:12;95733.00;;;21.50
15680;BMP180;15488;48.114;11.532;2023-05-08T05:34:41;95728.00;;;21.50
15680;BMP180;15488;48.114;11.532;2023-05-08T05:37:09;95733.00;;;21.50
15680;BMP180;15488;48.114;11.532;2023-05-08T05:39:37;95734.00;;;21.50
15680;BMP180;15488;48.114;11.532;2023-05-08T05:42:04;95734.00;;;21.50
15680;BMP180;15488;48.114;11.532;2023-05-08T05:44:32;95740.00;;;21.50
15680;BMP180;15488;48.114;11.532;2023-05-08T05:46:59;95742.00;;;21.50
15680;BMP180;15488;48.114;11.532;2023-05-08T05:49:27;95746.00;;;21.50
15680;BMP180;15488;48.114;11.532;2023-05-08T05:51:54;95739.00;;;21.50
15680;BMP180;15488;48.114;11.532;2023-05-08T05:54:23;95745.00;;;21.20
15680;BMP180;15488;48.114;11.532;2023-05-08T05:56:51;95750.00;;;21.40
15680;BMP180;15488;48.114;11.532;2023-05-08T05:59:18;95747.00;;;21.40
15680;BMP180;15488;48.114;11.532;2023-05-08T06:01:46;95743.00;;;21.40
15680;BMP180;15488;48.114;11.532;2023-05-08T06:04:13;95750.00;;;21.40
15680;BMP180;15488;48.114;11.532;2023-05-08T06:06:41;95751.00;;;21.40
15680;BMP180;15488;48.114;11.532;2023-05-08T06:09:08;95759.00;;;21.40
15680;BMP180;15488;48.114;11.532;2023-05-08T06:11:37;95747.00;;;21.30
15680;BMP180;15488;48.114;11.532;2023-05-08T06:14:04;95753.00;;;21.30
15680;BMP180;15488;48.114;11.532;2023-05-08T06:16:32;95756.00;;;21.30
15680;BMP180;15488;48.114;11.532;2023-05-08T06:19:00;95755.00;;;21.30
15680;BMP180;15488;48.114;11.532;2023-05-08T06:21:28;95750.00;;;21.40
15680;BMP180;15488;48.114;11.532;2023-05-08T06:23:55;95754.00;;;21.30
15680;BMP180;15488;48.114;11.532;2023-05-08T06:26:23;95751.00;;;21.30
15680;BMP180;15488;48.114;11.532;2023-05-08T06:28:52;95752.00;;;21.30
15680;BMP180;15488;48.114;11.532;2023-05-08T06:31:20;95759.00;;;21.30
15680;BMP180;15488;48.114;11.532;2023-05-08T06:33:47;95750.00;;;21.30
15680;BMP180;15488;48.114;11.532;2023-05-08T06:36:15;95758.00;;;21.30
15680;BMP180;15488;48.114;11.532;2023-05-08T06:38:42;95757.00;;;21.30
15680;BMP180;15488;48.114;11.532;2023-05-08T06:41:09;95761.00;;;21.30
15680;BMP180;15488;48.114;11.532;2023-05-08T06:43:37;95763.00;;;21.30
15680;BMP180;15488;48.114;11.532;2023-05-08T06:46:07;95766.00;;;21.20
15680;BMP180;15488;48.114;11.532;2023-05-08T06:48:34;95763.00;;;21.20
15680;BMP180;15488;48.114;11.532;2023-05-08T06:51:02;95765.00;;;21.30
15680;BMP180;15488;48.114;11.532;2023-05-08T06:53:29;95766.00;;;21.20
15680;BMP180;15488;48.114;11.532;2023-05-08T06:55:57;95767.00;;;21.20
15680;BMP180;15488;48.114;11.532;2023-05-08T06:58:24;95769.00;;;21.20
15680;BMP180;15488;48.114;11.532;2023-05-08T07:00:52;95769.00;;;21.20
15680;BMP180;15488;48.114;11.532;2023-05-08T07:03:20;95770.00;;;21.20
15680;BMP180;15488;48.114;11.532;2023-05-08T07:05:48;95782.00;;;21.20
15680;BMP180;15488;48.114;11.532;2023-05-08T07:08:15;95780.00;;;21.20
15680;BMP180;15488;48.114;11.532;2023-05-08T07:10:43;95776.00;;;21.20
15680;BMP180;15488;48.114;11.532;2023-05-08T07:13:10;95780.00;;;21.20
15680;BMP180;15488;48.114;11.532;2023-05-08T07:15:38;95778.00;;;21.30
15680;BMP180;15488;48.114;11.532;2023-05-08T07:18:05;95773.00;;;21.30
15680;BMP180;15488;48.114;11.532;2023-05-08T07:20:34;95775.00;;;21.30
15680;BMP180;15488;48.114;11.532;2023-05-08T07:23:02;95775.00;;;21.30
15680;BMP180;15488;48.114;11.532;2023-05-08T07:25:29;95773.00;;;21.30
15680;BMP180;15488;48.114;11.532;2023-05-08T07:27:57;95783.00;;;21.40
15680;BMP180;15488;48.114;11.532;2023-05-08T07:30:24;95778.00;;;21.40
15680;BMP180;15488;48.114;11.532;2023-05-08T07:32:52;95784.00;;;21.40
15680;BMP180;15488;48.114;11.532;2023-05-08T07:35:19;95782.00;;;21.40
15680;BMP180;15488;48.114;11.532;2023-05-08T07:37:48;95781.00;;;21.40
15680;BMP180;15488;48.114;11.532;2023-05-08T07:40:15;95786.00;;;21.40
15680;BMP180;15488;48.114;11.532;2023-05-08T07:42:44;95792.00;;;21.30
15680;BMP180;15488;48.114;11.532;2023-05-08T07:45:12;95786.00;;;21.50
15680;BMP180;15488;48.114;11.532;2023-05-08T07:47:48;95786.00;;;21.50
15680;BMP180;15488;48.114;11.532;2023-05-08T07:50:15;95787.00;;;21.50
15680;BMP180;15488;48.114;11.532;2023-05-08T07:52:43;95793.00;;;21.50
15680;BMP180;15488;48.114;11.532;2023-05-08T07:55:12;95788.00;;;21.60
15680;BMP180;15488;48.114;11.532;2023-05-08T07:57:40;95790.00;;;21.60
15680;BMP180;15488;48.114;11.532;2023-05-08T08:00:09;95791.00;;;21.60
15680;BMP180;15488;48.114;11.532;2023-05-08T08:02:37;95789.00;;;21.60
15680;BMP180;15488;48.114;11.532;2023-05-08T08:05:05;95788.00;;;21.70
15680;BMP180;15488;48.114;11.532;2023-05-08T08:07:34;95790.00;;;21.70
15680;BMP180;15488;48.114;11.532;2023-05-08T08:10:02;95794.00;;;21.70
15680;BMP180;15488;48.114;11.532;2023-05-08T08:12:31;95784.00;;;21.70
15680;BMP180;15488;48.114;11.532;2023-05-08T08:14:58;95789.00;;;21.80
15680;BMP180;15488;48.114;11.532;2023-05-08T08:17:26;95793.00;;;21.80
15680;BMP180;15488;48.114;11.532;2023-05-08T08:19:53;95793.00;;;21.80
15680;BMP180;15488;48.114;11.532;2023-05-08T08:22:21;95792.00;;;21.80
15680;BMP180;15488;48.114;11.532;2023-05-08T08:24:48;95799.00;;;21.90
15680;BMP180;15488;48.114;11.532;2023-05-08T08:27:15;95792.00;;;22.00
15680;BMP180;15488;48.114;11.532;2023-05-08T08:29:44;95793.00;;;22.00
15680;BMP180;15488;48.114;11.532;2023-05-08T08:32:12;95792.00;;;21.90
15680;BMP180;15488;48.114;11.532;2023-05-08T08:34:39;95796.00;;;21.90
15680;BMP180;15488;48.114;11.532;2023-05-08T08:37:07;95795.00;;;22.00
15680;BMP180;15488;48.114;11.532;2023-05-08T08:39:34;95790.00;;;22.00
15680;BMP180;15488;48.114;11.532;2023-05-08T08:42:02;95786.00;;;22.00
15680;BMP180;15488;48.114;11.532;2023-05-08T08:44:30;95785.00;;;22.10
15680;BMP180;15488;48.114;11.532;2023-05-08T08:46:59;95794.00;;;22.10
15680;BMP180;15488;48.114;11.532;2023-05-08T08:49:30;95792.00;;;22.20
15680;BMP180;15488;48.114;11.532;2023-05-08T08:52:01;95787.00;;;22.20
15680;BMP180;15488;48.114;11.532;2023-05-08T08:54:30;95782.00;;;22.30
15680;BMP180;15488;48.114;11.532;2023-05-08T08:57:03;95785.00;;;22.30
15680;BMP180;15488;48.114;11.532;2023-05-08T08:59:32;95780.00;;;22.40
15680;BMP180;15488;48.114;11.532;2023-05-08T09:02:08;95780.00;;;22.40
15680;BMP180;15488;48.114;11.532;2023-05-08T09:04:36;95781.00;;;22.50
15680;BMP180;15488;48.114;11.532;2023-05-08T09:07:04;95786.00;;;22.60
15680;BMP180;15488;48.114;11.532;2023-05-08T09:09:34;95787.00;;;22.70
15680;BMP180;15488;48.114;11.532;2023-05-08T09:12:03;95780.00;;;22.70
15680;BMP180;15488;48.114;11.532;2023-05-08T09:14:30;95783.00;;;22.80
15680;BMP180;15488;48.114;11.532;2023-05-08T09:16:58;95780.00;;;22.90
15680;BMP180;15488;48.114;11.532;2023-05-08T09:19:27;95784.00;;;22.90
15680;BMP180;15488;48.114;11.532;2023-05-08T09:21:58;95783.00;;;23.00
15680;BMP180;15488;48.114;11.532;2023-05-08T09:27:19;95789.00;;;23.20
15680;BMP180;15488;48.114;11.532;2023-05-08T09:29:58;95785.00;;;23.10
15680;BMP180;15488;48.114;11.532;2023-05-08T09:32:27;95791.00;;;23.10
15680;BMP180;15488;48.114;11.532;2023-05-08T09:34:57;95788.00;;;23.20
15680;BMP180;15488;48.114;11.532;2023-05-08T09:37:25;95783.00;;;23.30
15680;BMP180;15488;48.114;11.532;2023-05-08T09:39:53;95782.00;;;23.30
15680;BMP180;15488;48.114;11.532;2023-05-08T09:42:21;95778.00;;;23.40
15680;BMP180;15488;48.114;11.532;2023-05-08T09:44:51;95787.00;;;23.40
15680;BMP180;15488;48.114;11.532;2023-05-08T09:47:20;95788.00;;;23.50
15680;BMP180;15488;48.114;11.532;2023-05-08T09:50:00;95784.00;;;23.50
15680;BMP180;15488;48.114;11.532;2023-05-08T09:52:28;95790.00;;;23.60
15680;BMP180;15488;48.114;11.532;2023-05-08T09:54:59;95790.00;;;23.60
15680;BMP180;15488;48.114;11.532;2023-05-08T09:57:27;95787.00;;;23.70
15680;BMP180;15488;48.114;11.532;2023-05-08T10:00:00;95786.00;;;23.70
15680;BMP180;15488;48.114;11.532;2023-05-08T10:02:30;95787.00;;;23.70
15680;BMP180;15488;48.114;11.532;2023-05-08T10:04:59;95789.00;;;23.80
15680;BMP180;15488;48.114;11.532;2023-05-08T10:07:28;95790.00;;;23.90
15680;BMP180;15488;48.114;11.532;2023-05-08T10:10:00;95793.00;;;23.90
15680;BMP180;15488;48.114;11.532;2023-05-08T10:12:29;95784.00;;;23.90
15680;BMP180;15488;48.114;11.532;2023-05-08T10:14:57;95789.00;;;24.00
15680;BMP180;15488;48.114;11.532;2023-05-08T10:17:38;95789.00;;;24.10
15680;BMP180;15488;48.114;11.532;2023-05-08T10:20:11;95791.00;;;24.10
15680;BMP180;15488;48.114;11.532;2023-05-08T10:22:42;95788.00;;;24.10
15680;BMP180;15488;48.114;11.532;2023-05-08T10:25:15;95782.00;;;24.20
15680;BMP180;15488;48.114;11.532;2023-05-08T10:27:47;95786.00;;;24.20
15680;BMP180;15488;48.114;11.532;2023-05-08T10:30:22;95780.00;;;24.30
15680;BMP180;15488;48.114;11.532;2023-05-08T10:32:51;95783.00;;;24.30
15680;BMP180;15488;48.114;11.532;2023-05-08T10:35:22;95782.00;;;24.10
15680;BMP180;15488;48.114;11.532;2023-05-08T10:37:49;95780.00;;;24.50
15680;BMP180;15488;48.114;11.532;2023-05-08T10:40:18;95783.00;;;24.50
15680;BMP180;15488;48.114;11.532;2023-05-08T10:42:47;95779.00;;;24.60
15680;BMP180;15488;48.114;11.532;2023-05-08T10:45:15;95785.00;;;24.60
15680;BMP180;15488;48.114;11.532;2023-05-08T10:47:50;95778.00;;;24.70
15680;BMP180;15488;48.114;11.532;2023-05-08T10:50:33;95774.00;;;24.80
15680;BMP180;15488;48.114;11.532;2023-05-08T10:53:05;95775.00;;;24.90
15680;BMP180;15488;48.114;11.532;2023-05-08T10:55:36;95773.00;;;24.90
15680;BMP180;15488;48.114;11.532;2023-05-08T10:58:10;95775.00;;;25.10
15680;BMP180;15488;48.114;11.532;2023-05-08T11:01:12;95771.00;;;25.10
15680;BMP180;15488;48.114;11.532;2023-05-08T11:03:41;95767.00;;;25.20
15680;BMP180;15488;48.114;11.532;2023-05-08T11:06:11;95773.00;;;25.20
15680;BMP180;15488;48.114;11.532;2023-05-08T11:08:49;95772.00;;;25.20
15680;BMP180;15488;48.114;11.532;2023-05-08T11:11:27;95772.00;;;25.20
15680;BMP180;15488;48.114;11.532;2023-05-08T11:14:09;95762.00;;;25.20
15680;BMP180;15488;48.114;11.532;2023-05-08T11:17:02;95772.00;;;25.30
15680;BMP180;15488;48.114;11.532;2023-05-08T11:19:30;95768.00;;;25.30
15680;BMP180;15488;48.114;11.532;2023-05-08T11:22:13;95762.00;;;25.30
15680;BMP180;15488;48.114;11.532;2023-05-08T11:24:47;95769.00;;;25.30
15680;BMP180;15488;48.114;11.532;2023-05-08T11:27:15;95767.00;;;25.30
15680;BMP180;15488;48.114;11.532;2023-05-08T11:29:43;95763.00;;;25.30
15680;BMP180;15488;48.114;11.532;2023-05-08T11:32:11;95769.00;;;25.40
15680;BMP180;15488;48.114;11.532;2023-05-08T11:34:45;95760.00;;;25.40
15680;BMP180;15488;48.114;11.532;2023-05-08T11:37:18;95769.00;;;25.40
15680;BMP180;15488;48.114;11.532;2023-05-08T11:39:46;95760.00;;;25.40
15680;BMP180;15488;48.114;11.532;2023-05-08T11:42:32;95764.00;;;25.40
15680;BMP180;15488;48.114;11.532;2023-05-08T11:45:07;95763.00;;;25.50
15680;BMP180;15488;48.114;11.532;2023-05-08T11:47:39;95761.00;;;25.50
15680;BMP180;15488;48.114;11.532;2023-05-08T11:50:08;95764.00;;;25.50
15680;BMP180;15488;48.114;11.532;2023-05-08T11:52:39;95767.00;;;25.50
15680;BMP180;15488;48.114;11.532;2023-05-08T11:55:08;95761.00;;;25.50
15680;BMP180;15488;48.114;11.532;2023-05-08T11:57:36;95762.00;;;25.60
15680;BMP180;15488;48.114;11.532;2023-05-08T12:00:05;95769.00;;;25.60
15680;BMP180;15488;48.114;11.532;2023-05-08T12:02:36;95773.00;;;25.70
15680;BMP180;15488;48.114;11.532;2023-05-08T12:05:05;95775.00;;;25.70
15680;BMP180;15488;48.114;11.532;2023-05-08T12:07:42;95775.00;;;25.70
15680;BMP180;15488;48.114;11.532;2023-05-08T12:10:11;95776.00;;;25.70
15680;BMP180;15488;48.114;11.532;2023-05-08T12:12:39;95772.00;;;25.70
15680;BMP180;15488;48.114;11.532;2023-05-08T12:15:07;95775.00;;;25.70
15680;BMP180;15488;48.114;11.532;2023-05-08T12:17:35;95776.00;;;25.70
15680;BMP180;15488;48.114;11.532;2023-05-08T12:20:10;95774.00;;;25.70
15680;BMP180;15488;48.114;11.532;2023-05-08T12:22:38;95775.00;;;25.70
15680;BMP180;15488;48.114;11.532;2023-05-08T12:25:09;95772.00;;;25.80
15680;BMP180;15488;48.114;11.532;2023-05-08T12:27:37;95770.00;;;25.70
15680;BMP180;15488;48.114;11.532;2023-05-08T12:30:06;95778.00;;;25.70
15680;BMP180;15488;48.114;11.532;2023-05-08T12:32:36;95769.00;;;25.80
15680;BMP180;15488;48.114;11.532;2023-05-08T12:35:04;95769.00;;;25.80
15680;BMP180;15488;48.114;11.532;2023-05-08T12:37:32;95772.00;;;25.80
15680;BMP180;15488;48.114;11.532;2023-05-08T12:40:00;95772.00;;;25.80
15680;BMP180;15488;48.114;11.532;2023-05-08T12:42:45;95776.00;;;25.80
15680;BMP180;15488;48.114;11.532;2023-05-08T12:45:17;95774.00;;;25.90
15680;BMP180;15488;48.114;11.532;2023-05-08T12:47:46;95776.00;;;25.90
15680;BMP180;15488;48.114;11.532;2023-05-08T12:50:18;95772.00;;;25.90
15680;BMP180;15488;48.114;11.532;2023-05-08T12:52:46;95772.00;;;25.90
15680;BMP180;15488;48.114;11.532;2023-05-08T12:55:21;95771.00;;;25.90
15680;BMP180;15488;48.114;11.532;2023-05-08T12:57:58;95764.00;;;25.90
15680;BMP180;15488;48.114;11.532;2023-05-08T13:00:32;95768.00;;;25.90
15680;BMP180;15488;48.114;11.532;2023-05-08T13:03:01;95768.00;;;25.90
15680;BMP180;15488;48.114;11.532;2023-05-08T13:05:28;95768.00;;;25.90
15680;BMP180;15488;48.114;11.532;2023-05-08T13:08:00;95766.00;;;25.90
15680;BMP180;15488;48.114;11.532;2023-05-08T13:10:42;95693.00;;;26.00
15680;BMP180;15488;48.114;11.532;2023-05-08T13:13:12;95764.00;;;25.90
15680;BMP180;15488;48.114;11.532;2023-05-08T13:15:40;95765.00;;;25.90
15680;BMP180;15488;48.114;11.532;2023-05-08T13:18:08;95763.00;;;25.90
15680;BMP180;15488;48.114;11.532;2023-05-08T13:20:35;95762.00;;;25.90
15680;BMP180;15488;48.114;11.532;2023-05-08T13:23:03;95759.00;;;25.90
15680;BMP180;15488;48.114;11.532;2023-05-08T13:25:31;95758.00;;;25.80
15680;BMP180;15488;48.114;11.532;2023-05-08T13:27:59;95754.00;;;25.80
15680;BMP180;15488;48.114;11.532;2023-05-08T13:30:28;95758.00;;;25.80
15680;BMP180;15488;48.114;11.532;2023-05-08T13:32:56;95759.00;;;25.80
15680;BMP180;15488;48.114;11.532;2023-05-08T13:35:24;95754.00;;;25.80
15680;BMP180;15488;48.114;11.532;2023-05-08T13:37:53;95758.00;;;25.80
15680;BMP180;15488;48.114;11.532;2023-05-08T13:40:21;95760.00;;;25.80
15680;BMP180;15488;48.114;11.532;2023-05-08T13:42:49;95753.00;;;25.70
15680;BMP180;15488;48.114;11.532;2023-05-08T13:45:17;95749.00;;;25.70
15680;BMP180;15488;48.114;11.532;2023-05-08T13:47:47;95760.00;;;25.70
15680;BMP180;15488;48.114;11.532;2023-05-08T13:50:15;95754.00;;;25.70
15680;BMP180;15488;48.114;11.532;2023-05-08T13:52:43;95752.00;;;25.60
15680;BMP180;15488;48.114;11.532;2023-05-08T13:55:11;95744.00;;;25.60
15680;BMP180;15488;48.114;11.532;2023-05-08T13:57:42;95753.00;;;25.60
15680;BMP180;15488;48.114;11.532;2023-05-08T14:00:10;95752.00;;;25.60
15680;BMP180;15488;48.114;11.532;2023-05-08T14:02:40;95755.00;;;25.50
15680;BMP180;15488;48.114;11.532;2023-05-08T14:05:09;95759.00;;;25.50
15680;BMP180;15488;48.114;11.532;2023-05-08T14:07:36;95758.00;;;25.50
15680;BMP180;15488;48.114;11.532;2023-05-08T14:10:04;95756.00;;;25.40
15680;BMP180;15488;48.114;11.532;2023-05-08T14:12:32;95755.00;;;25.40
15680;BMP180;15488;48.114;11.532;2023-05-08T14:15:02;95754.00;;;25.30
15680;BMP180;15488;48.114;11.532;2023-05-08T14:17:29;95756.00;;;25.30
15680;BMP180;15488;48.114;11.532;2023-05-08T14:19:57;95749.00;;;25.30
15680;BMP180;15488;48.114;11.532;2023-05-08T14:22:26;95755.00;;;25.20
15680;BMP180;15488;48.114;11.532;2023-05-08T14:24:53;95753.00;;;25.20